Time;durP1;ratioP1;P1;durP2;ratioP2;P2;SDS_P1;SDS_P2;PMS_P1;PMS_P2;Temp;Humidity;BMP_temperature;BMP_pressure;BME280_temperature;BME280_humidity;BME280_pressure;Samples;Min_cycle;Max_cycle;Signal;HPM_P1;HPM_P2
2020/12/04 00:01:10;;;;;;;2.05;1.80;;;20.70;44.80;;;;;;588022;93;3002012;-35
2020/12/04 00:03:38;;;;;;;2.70;2.12;;;20.70;44.50;;;;;;588181;92;3001964;-34
2020/12/04 00:06:06;;;;;;;1.98;1.77;;;20.70;44.80;;;;;;588970;93;3002001;-34
2020/12/04 00:08:33;;;;;;;2.25;1.90;;;20.70;44.50;;;;;;582422;95;3002018;-33
2020/12/04 00:11:01;;;;;;;2.00;1.70;;;20.70;44.50;;;;;;597475;92;3003098;-33
2020/12/04 00:13:28;;;;;;;1.62;1.50;;;20.70;44.80;;;;;;594706;92;3002228;-34
2020/12/04 00:15:56;;;;;;;2.00;1.77;;;20.70;44.60;;;;;;597597;91;3002056;-33
2020/12/04 00:18:24;;;;;;;1.75;1.60;;;20.70;44.80;;;;;;586079;95;3003082;-34
2020/12/04 00:20:51;;;;;;;1.82;1.70;;;20.70;44.90;;;;;;596799;90;3002216;-34
2020/12/04 00:23:19;;;;;;;3.00;1.72;;;20.70;44.90;;;;;;586835;94;3002006;-34
2020/12/04 00:25:46;;;;;;;2.35;1.92;;;20.70;44.90;;;;;;588434;94;3002005;-34
2020/12/04 00:28:14;;;;;;;1.87;1.70;;;20.70;44.90;;;;;;596524;93;3002625;-34
2020/12/04 00:30:42;;;;;;;1.87;1.57;;;20.70;44.90;;;;;;595813;93;3002524;-34
2020/12/04 00:33:09;;;;;;;3.05;1.65;;;20.70;44.80;;;;;;587582;92;3002373;-34
2020/12/04 00:35:37;;;;;;;1.82;1.57;;;20.70;44.80;;;;;;588080;94;3001967;-34
2020/12/04 00:38:04;;;;;;;1.92;1.60;;;20.70;44.80;;;;;;583723;93;3003845;-34
2020/12/04 00:40:32;;;;;;;2.25;2.05;;;20.70;44.80;;;;;;592649;92;3002323;-34
2020/12/04 00:43:00;;;;;;;2.85;1.70;;;20.70;44.80;;;;;;588775;93;3002377;-33
2020/12/04 00:45:27;;;;;;;1.95;1.77;;;20.60;45.40;;;;;;584236;94;3002126;-34
2020/12/04 00:47:55;;;;;;;2.15;1.95;;;20.60;44.80;;;;;;593409;92;3001978;-34
2020/12/04 00:50:23;;;;;;;2.90;1.72;;;20.60;44.80;;;;;;599037;92;3002542;-33
2020/12/04 00:52:53;;;;;;;2.05;1.82;;;20.60;44.70;;;;;;595655;91;3001942;-32
2020/12/04 00:55:19;;;;;;;2.72;1.50;;;20.60;44.70;;;;;;600563;93;3001980;-33
2020/12/04 00:57:47;;;;;;;2.50;1.85;;;20.60;44.80;;;;;;594480;93;3002600;-33
2020/12/04 01:00:15;;;;;;;2.02;1.57;;;20.60;44.70;;;;;;591794;93;3002471;-34
2020/12/04 01:02:43;;;;;;;2.45;1.45;;;20.50;44.70;;;;;;600766;92;3002451;-34
2020/12/04 01:05:10;;;;;;;1.95;1.60;;;20.50;44.70;;;;;;598129;92;3002253;-34
2020/12/04 01:07:38;;;;;;;2.25;1.80;;;20.50;44.70;;;;;;596292;93;3002186;-33
2020/12/04 01:10:06;;;;;;;1.55;1.45;;;20.50;44.80;;;;;;584545;92;3001971;-34
2020/12/04 01:12:33;;;;;;;1.72;1.62;;;20.50;44.70;;;;;;597282;92;3002268;-34
2020/12/04 01:15:01;;;;;;;2.77;1.87;;;20.50;44.90;;;;;;596529;92;3002780;-34
2020/12/04 01:17:29;;;;;;;1.32;1.20;;;20.60;44.70;;;;;;594436;92;3002254;-33
2020/12/04 01:19:56;;;;;;;2.35;1.57;;;20.50;44.80;;;;;;588288;92;3002021;-34
2020/12/04 01:22:24;;;;;;;1.60;1.50;;;20.50;44.70;;;;;;600151;92;3001979;-33
2020/12/04 01:24:51;;;;;;;3.10;1.77;;;20.50;44.30;;;;;;598760;92;3002457;-35
2020/12/04 01:27:19;;;;;;;2.45;1.90;;;20.50;44.80;;;;;;596781;92;3002413;-34
2020/12/04 01:29:47;;;;;;;1.62;1.40;;;20.50;44.80;;;;;;594400;93;3001951;-35
2020/12/04 01:32:14;;;;;;;2.05;1.50;;;20.50;44.90;;;;;;599596;92;3002073;-33
2020/12/04 01:34:42;;;;;;;2.45;1.80;;;20.50;45.20;;;;;;592603;92;3002176;-33
2020/12/04 01:37:09;;;;;;;1.55;1.45;;;20.40;45.20;;;;;;593548;93;3002057;-33
2020/12/04 01:39:37;;;;;;;1.72;1.62;;;20.40;45.30;;;;;;592968;91;3001962;-33
2020/12/04 01:42:05;;;;;;;2.20;1.60;;;20.40;45.40;;;;;;589037;94;3002405;-34
2020/12/04 01:44:32;;;;;;;2.50;1.57;;;20.40;45.30;;;;;;594306;90;3002522;-34
2020/12/04 01:47:00;;;;;;;1.90;1.42;;;20.40;45.30;;;;;;587851;94;3001981;-33
2020/12/04 01:49:28;;;;;;;2.05;1.57;;;20.40;45.30;;;;;;592852;92;3002403;-33
2020/12/04 01:51:56;;;;;;;2.27;1.37;;;20.40;45.40;;;;;;583035;93;3002289;-33
2020/12/04 01:54:24;;;;;;;1.85;1.32;;;20.40;45.50;;;;;;596982;91;3003021;-33
2020/12/04 01:56:52;;;;;;;2.85;1.60;;;20.40;45.40;;;;;;593554;91;3002998;-33
2020/12/04 01:59:19;;;;;;;1.60;1.47;;;20.40;45.40;;;;;;600809;92;3001971;-33
2020/12/04 02:01:49;;;;;;;1.95;1.60;;;20.40;45.40;;;;;;596988;92;3002026;-33
2020/12/04 02:04:17;;;;;;;2.00;1.30;;;20.40;45.40;;;;;;592869;93;3001984;-34
2020/12/04 02:06:50;;;;;;;1.40;1.30;;;20.40;45.40;;;;;;576610;94;3002482;-33
2020/12/04 02:09:21;;;;;;;3.98;1.72;;;20.40;45.40;;;;;;595756;92;3001974;-34
2020/12/04 02:11:50;;;;;;;1.40;1.30;;;20.40;45.40;;;;;;592690;92;3002543;-33
2020/12/04 02:14:19;;;;;;;1.57;1.40;;;20.40;45.40;;;;;;589334;93;3002362;-33
2020/12/04 02:16:47;;;;;;;1.45;1.35;;;20.30;45.30;;;;;;595259;92;3002401;-32
2020/12/04 02:19:14;;;;;;;1.72;1.47;;;20.30;45.30;;;;;;591919;93;3002057;-33
2020/12/04 02:21:43;;;;;;;1.77;1.47;;;20.30;45.90;;;;;;588446;93;3002660;-33
2020/12/04 02:24:12;;;;;;;3.83;1.55;;;20.30;45.40;;;;;;587274;93;3002026;-34
2020/12/04 02:26:44;;;;;;;2.40;1.57;;;20.30;45.40;;;;;;589902;93;3002205;-34
2020/12/04 02:29:11;;;;;;;1.42;1.30;;;20.20;45.30;;;;;;599189;92;3001653;-34
2020/12/04 02:31:39;;;;;;;2.08;1.42;;;20.20;45.30;;;;;;592435;92;3001627;-34
2020/12/04 02:34:07;;;;;;;1.87;1.62;;;20.30;45.40;;;;;;589035;94;3002026;-34
2020/12/04 02:36:34;;;;;;;2.00;1.42;;;20.30;45.40;;;;;;583150;94;3002085;-33
2020/12/04 02:39:02;;;;;;;2.30;1.77;;;20.20;45.40;;;;;;587190;94;3002314;-33
2020/12/04 02:41:30;;;;;;;1.47;1.25;;;20.30;45.50;;;;;;584424;94;3002888;-32
2020/12/04 02:43:57;;;;;;;2.62;1.50;;;20.20;45.50;;;;;;587950;93;3001979;-33
2020/12/04 02:46:25;;;;;;;2.33;1.40;;;20.20;45.70;;;;;;579478;94;3002267;-35
2020/12/04 02:48:52;;;;;;;1.50;1.40;;;20.30;45.90;;;;;;585503;94;3002054;-33
2020/12/04 02:51:20;;;;;;;1.42;1.27;;;20.30;46.60;;;;;;578059;95;3003097;-34
2020/12/04 02:53:48;;;;;;;1.15;1.12;;;20.30;45.90;;;;;;583563;92;3003313;-33
2020/12/04 02:56:18;;;;;;;2.52;1.42;;;20.30;45.90;;;;;;584751;94;3001956;-33
2020/12/04 02:58:46;;;;;;;1.50;1.40;;;20.30;45.90;;;;;;588851;94;3002041;-34
2020/12/04 03:01:14;;;;;;;1.67;1.27;;;20.30;45.80;;;;;;583149;95;3002633;-33
2020/12/04 03:03:41;;;;;;;1.70;1.40;;;20.30;45.80;;;;;;583572;95;3002105;-33
2020/12/04 03:06:09;;;;;;;1.35;1.17;;;20.30;45.70;;;;;;579325;94;3002471;-33
2020/12/04 03:08:36;;;;;;;1.52;1.17;;;20.30;45.70;;;;;;576884;95;3002040;-33
2020/12/04 03:11:04;;;;;;;1.47;1.37;;;20.30;45.70;;;;;;589785;93;3001936;-33
2020/12/04 03:13:32;;;;;;;1.52;1.42;;;20.40;45.60;;;;;;583841;94;3002172;-33
2020/12/04 03:15:59;;;;;;;1.32;1.22;;;20.40;45.60;;;;;;576361;94;3003469;-32
2020/12/04 03:18:27;;;;;;;1.10;1.00;;;20.40;45.50;;;;;;590474;93;3003037;-32
2020/12/04 03:20:54;;;;;;;2.40;1.40;;;20.40;45.50;;;;;;587270;94;3001590;-33
2020/12/04 03:23:22;;;;;;;1.22;1.10;;;20.40;45.50;;;;;;592964;93;3002287;-33
2020/12/04 03:25:50;;;;;;;1.62;1.20;;;20.40;45.40;;;;;;583518;96;3003069;-33
2020/12/04 03:28:17;;;;;;;1.98;1.25;;;20.40;45.40;;;;;;579343;95;3002311;-32
2020/12/04 03:30:45;;;;;;;1.77;1.20;;;20.40;45.40;;;;;;589799;93;3001996;-33
2020/12/04 03:33:13;;;;;;;1.80;1.65;;;20.40;45.40;;;;;;585421;92;3003601;-32
2020/12/04 03:35:41;;;;;;;1.27;1.12;;;20.40;45.90;;;;;;591030;92;3002391;-33
2020/12/04 03:38:08;;;;;;;2.67;1.42;;;20.40;45.30;;;;;;592853;91;3001989;-34
2020/12/04 03:40:36;;;;;;;1.27;1.17;;;20.40;45.30;;;;;;597641;92;3001684;-34
2020/12/04 03:43:04;;;;;;;2.30;1.00;;;20.40;45.20;;;;;;599260;91;3002403;-33
2020/12/04 03:45:31;;;;;;;1.12;1.10;;;20.40;45.20;;;;;;595808;92;3003965;-33
2020/12/04 03:47:59;;;;;;;1.32;1.22;;;20.40;45.20;;;;;;595921;92;3001996;-32
2020/12/04 03:50:26;;;;;;;1.62;1.20;;;20.50;45.30;;;;;;594119;92;3002003;-35
2020/12/04 03:52:54;;;;;;;1.25;1.15;;;20.40;45.20;;;;;;599192;91;3002166;-33
2020/12/04 03:55:21;;;;;;;2.30;1.22;;;20.50;45.20;;;;;;599322;92;3002835;-33
2020/12/04 03:57:49;;;;;;;0.90;0.90;;;20.50;45.70;;;;;;582220;92;3002031;-35
2020/12/04 04:00:17;;;;;;;1.40;1.30;;;20.50;45.20;;;;;;596037;93;3002013;-34
2020/12/04 04:02:44;;;;;;;1.20;1.10;;;20.50;45.10;;;;;;598217;91;3002795;-33
2020/12/04 04:05:12;;;;;;;5.33;1.25;;;20.50;45.10;;;;;;595408;93;3002010;-33
2020/12/04 04:07:40;;;;;;;1.52;1.42;;;20.50;45.10;;;;;;601094;91;3002066;-33
2020/12/04 04:10:07;;;;;;;1.27;1.17;;;20.50;45.10;;;;;;592345;92;3002029;-33
2020/12/04 04:12:35;;;;;;;1.92;1.40;;;20.50;45.10;;;;;;596618;93;3001969;-33
2020/12/04 04:15:03;;;;;;;1.30;1.20;;;20.50;45.10;;;;;;597166;92;3002132;-33
2020/12/04 04:17:30;;;;;;;1.02;1.00;;;20.50;45.00;;;;;;588917;94;3002455;-33
2020/12/04 04:19:58;;;;;;;1.90;1.22;;;20.50;45.00;;;;;;599088;91;3002006;-33
2020/12/04 04:22:26;;;;;;;1.42;1.22;;;20.50;45.00;;;;;;597000;92;3002243;-33
2020/12/04 04:24:53;;;;;;;1.27;1.17;;;20.50;45.00;;;;;;597378;92;3002446;-34
2020/12/04 04:27:21;;;;;;;1.10;1.00;;;20.60;45.00;;;;;;594806;92;3002297;-33
2020/12/04 04:29:48;;;;;;;1.20;1.10;;;20.60;45.50;;;;;;590853;93;3002248;-33
2020/12/04 04:32:16;;;;;;;1.20;1.10;;;20.60;45.00;;;;;;592673;93;3002004;-34
2020/12/04 04:34:43;;;;;;;1.20;1.10;;;20.60;45.00;;;;;;589557;94;3002407;-33
2020/12/04 04:37:11;;;;;;;1.30;1.20;;;20.50;44.90;;;;;;588327;94;3002023;-33
2020/12/04 04:39:38;;;;;;;1.42;1.32;;;20.50;44.90;;;;;;593287;91;3002027;-33
2020/12/04 04:42:06;;;;;;;1.32;1.20;;;20.60;44.90;;;;;;593988;92;3002050;-34
2020/12/04 04:44:35;;;;;;;3.15;1.30;;;20.60;44.90;;;;;;586022;94;3002049;-33
2020/12/04 04:47:08;;;;;;;1.15;0.80;;;20.60;44.90;;;;;;592753;92;3001942;-33
2020/12/04 04:49:48;;;;;;;1.80;1.25;;;20.60;44.80;;;;;;589031;92;3002331;-33
2020/12/04 04:52:16;;;;;;;1.75;1.20;;;20.60;44.80;;;;;;586885;92;3002282;-32
2020/12/04 04:54:47;;;;;;;1.17;0.95;;;20.60;44.80;;;;;;594200;92;3001954;-33
2020/12/04 04:57:16;;;;;;;1.30;1.20;;;20.60;44.80;;;;;;589585;92;3002388;-33
2020/12/04 04:59:44;;;;;;;1.20;1.10;;;20.60;44.80;;;;;;594297;91;3001998;-33
2020/12/04 05:02:14;;;;;;;1.10;1.00;;;20.60;44.80;;;;;;596786;92;3001982;-33
2020/12/04 05:04:56;;;;;;;1.85;1.00;;;20.60;44.80;;;;;;592496;92;3003399;-33
2020/12/04 05:07:29;;;;;;;1.25;1.05;;;20.60;44.80;;;;;;580269;94;3002563;-34
2020/12/04 05:10:22;;;;;;;0.93;0.90;;;20.60;44.80;;;;;;603025;91;3002357;-33
2020/12/04 05:13:01;;;;;;;1.20;1.10;;;20.60;44.80;;;;;;594959;91;3002203;-33
2020/12/04 05:15:30;;;;;;;1.05;0.93;;;20.60;44.80;;;;;;595848;91;3001996;-33
2020/12/04 05:18:06;;;;;;;1.87;1.07;;;20.60;44.80;;;;;;595965;93;3002026;-33
2020/12/04 05:20:42;;;;;;;1.45;1.30;;;20.60;44.80;;;;;;596212;91;3002549;-32
2020/12/04 05:23:10;;;;;;;1.40;1.17;;;20.60;44.80;;;;;;598865;92;3002067;-33
2020/12/04 05:25:40;;;;;;;1.25;1.15;;;20.60;44.70;;;;;;594354;93;3001840;-33
2020/12/04 05:28:22;;;;;;;1.25;1.00;;;20.60;44.70;;;;;;595975;93;3001676;-33
2020/12/04 05:31:05;;;;;;;0.88;0.88;;;20.60;44.70;;;;;;595982;93;3001967;-33
2020/12/04 05:33:33;;;;;;;1.32;1.22;;;20.70;44.70;;;;;;595959;92;3001999;-33
2020/12/04 05:36:02;;;;;;;1.37;1.27;;;20.70;44.70;;;;;;588558;93;3003009;-33
2020/12/04 05:38:30;;;;;;;0.75;0.75;;;20.60;44.70;;;;;;597599;92;3001599;-33
2020/12/04 05:41:06;;;;;;;1.65;0.82;;;20.60;44.70;;;;;;593957;91;3001605;-33
2020/12/04 05:43:35;;;;;;;1.20;1.02;;;20.70;44.70;;;;;;592502;93;3001605;-33
2020/12/04 05:46:17;;;;;;;1.30;1.20;;;20.70;44.70;;;;;;587984;91;3002074;-34
2020/12/04 05:48:45;;;;;;;1.72;1.10;;;20.70;44.80;;;;;;596564;92;3002376;-33
2020/12/04 05:51:15;;;;;;;1.95;0.90;;;20.60;44.60;;;;;;582942;94;3001978;-33
2020/12/04 05:53:43;;;;;;;1.05;1.02;;;20.60;44.60;;;;;;599041;92;3002645;-34
2020/12/04 05:56:10;;;;;;;1.00;1.00;;;20.60;44.60;;;;;;587147;92;3001959;-33
2020/12/04 05:58:40;;;;;;;1.27;1.12;;;20.60;44.60;;;;;;593651;92;3002325;-33
2020/12/04 06:01:07;;;;;;;1.05;0.75;;;20.70;44.70;;;;;;596446;93;3002436;-33
2020/12/04 06:03:35;;;;;;;0.90;0.90;;;20.70;44.70;;;;;;594630;92;3001921;-33
2020/12/04 06:06:05;;;;;;;1.30;1.05;;;20.60;44.60;;;;;;595542;92;3001902;-33
2020/12/04 06:08:32;;;;;;;1.40;1.00;;;20.70;44.70;;;;;;591429;93;3001955;-34
2020/12/04 06:11:00;;;;;;;1.82;1.25;;;20.70;44.70;;;;;;598181;91;3002054;-33
2020/12/04 06:13:35;;;;;;;1.77;1.00;;;20.70;44.70;;;;;;589192;93;3001992;-33
2020/12/04 06:16:15;;;;;;;2.70;1.42;;;20.70;44.70;;;;;;594597;92;3002285;-33
2020/12/04 06:18:44;;;;;;;0.88;0.88;;;20.70;44.70;;;;;;594542;92;3002390;-33
2020/12/04 06:21:11;;;;;;;1.85;1.10;;;20.70;44.70;;;;;;591441;92;3002300;-35
2020/12/04 06:23:42;;;;;;;2.10;0.98;;;20.70;44.70;;;;;;592525;92;3002531;-33
2020/12/04 06:26:10;;;;;;;1.27;1.17;;;20.70;44.70;;;;;;587021;92;3002160;-33
2020/12/04 06:28:40;;;;;;;1.80;1.00;;;20.70;44.70;;;;;;588261;91;3001834;-33
2020/12/04 06:31:13;;;;;;;1.45;1.17;;;20.70;44.80;;;;;;591568;92;3001984;-33
2020/12/04 06:33:43;;;;;;;2.47;1.02;;;20.70;44.80;;;;;;590499;94;3002069;-33
2020/12/04 06:36:13;;;;;;;1.77;0.98;;;20.60;44.70;;;;;;595593;90;3002608;-35
2020/12/04 06:38:42;;;;;;;2.27;1.20;;;20.70;44.80;;;;;;584995;93;3001583;-34
2020/12/04 06:41:34;;;;;;;3.12;1.60;;;20.70;44.60;;;;;;591044;94;3002393;-33
2020/12/04 06:44:18;;;;;;;2.37;1.20;;;20.70;44.70;;;;;;587791;94;3002591;-33
2020/12/04 06:46:49;;;;;;;1.10;0.82;;;20.70;44.50;;;;;;594609;93;3001950;-34
2020/12/04 06:49:37;;;;;;;1.95;1.10;;;20.70;44.40;;;;;;591356;95;3002029;-33
2020/12/04 06:52:23;;;;;;;3.35;1.32;;;20.80;43.80;;;;;;586505;93;3001966;-32
2020/12/04 06:54:52;;;;;;;2.77;1.10;;;20.80;44.70;;;;;;582629;94;3003169;-33
2020/12/04 06:57:22;;;;;;;3.85;1.35;;;20.80;44.80;;;;;;590037;93;3002245;-33
2020/12/04 06:59:51;;;;;;;3.37;1.15;;;20.90;44.90;;;;;;587812;94;3001972;-34
2020/12/04 07:02:24;;;;;;;2.08;1.30;;;21.00;45.00;;;;;;591864;93;3001614;-35
2020/12/04 07:04:54;;;;;;;1.10;1.00;;;21.00;44.70;;;;;;595595;93;3001962;-34
2020/12/04 07:07:27;;;;;;;3.58;1.20;;;21.10;44.80;;;;;;585533;95;3002737;-35
2020/12/04 07:09:55;;;;;;;;;;;21.20;44.70;;;;;;581707;94;3001987;-33
2020/12/04 07:12:26;;;;;;;1.25;0.93;;;21.20;44.80;;;;;;576554;97;3001908;-34
2020/12/04 07:14:56;;;;;;;2.58;1.02;;;21.20;44.60;;;;;;586536;94;3001908;-34
2020/12/04 07:17:26;;;;;;;2.05;1.22;;;21.30;44.70;;;;;;589154;94;3001549;-34
2020/12/04 07:19:55;;;;;;;1.17;0.88;;;21.40;44.50;;;;;;583778;94;3002369;-33
2020/12/04 07:22:24;;;;;;;5.55;1.47;;;21.40;44.40;;;;;;581131;95;3002081;-33
2020/12/04 07:24:54;;;;;;;1.42;1.10;;;21.40;44.40;;;;;;589824;94;3003673;-35
2020/12/04 07:27:27;;;;;;;1.10;1.00;;;21.50;44.60;;;;;;590507;94;3001952;-32
2020/12/04 07:29:54;;;;;;;1.80;1.27;;;21.50;44.30;;;;;;584857;94;3002011;-35
2020/12/04 07:32:24;;;;;;;1.72;1.02;;;21.60;44.40;;;;;;590219;93;3001938;-34
2020/12/04 07:34:52;;;;;;;1.60;1.10;;;21.60;44.10;;;;;;591335;93;3001615;-35
2020/12/04 07:37:20;;;;;;;2.20;1.12;;;21.60;44.10;;;;;;587136;94;3001894;-32
2020/12/04 07:39:47;;;;;;;1.67;1.10;;;21.70;44.10;;;;;;588453;94;3001997;-33
2020/12/04 07:42:15;;;;;;;1.02;0.90;;;21.70;43.90;;;;;;586442;95;3001906;-32
2020/12/04 07:44:48;;;;;;;1.27;1.05;;;21.70;43.80;;;;;;581705;93;3003346;-34
2020/12/04 07:47:17;;;;;;;1.07;1.00;;;21.80;43.80;;;;;;589862;94;3001888;-34
2020/12/04 07:49:51;;;;;;;1.55;1.17;;;21.80;43.70;;;;;;584344;95;3002623;-32
2020/12/04 07:52:21;;;;;;;2.45;1.00;;;21.90;44.40;;;;;;586406;94;3001712;-34
2020/12/04 07:55:00;;;;;;;2.15;1.30;;;21.90;43.90;;;;;;590756;93;3001594;-32
2020/12/04 07:57:35;;;;;;;2.37;1.20;;;22.00;43.90;;;;;;581925;94;3002301;-35
2020/12/04 08:00:07;;;;;;;3.52;1.15;;;22.00;43.50;;;;;;583249;93;3002457;-33
2020/12/04 08:02:35;;;;;;;5.00;1.12;;;22.00;44.60;;;;;;583374;95;3001587;-34
2020/12/04 08:05:03;;;;;;;2.75;1.05;;;22.10;43.80;;;;;;586598;95;3001753;-35
2020/12/04 08:07:32;;;;;;;1.32;1.00;;;22.10;43.70;;;;;;590710;93;3001685;-35
2020/12/04 08:10:01;;;;;;;2.27;1.07;;;22.10;43.70;;;;;;586134;94;3002146;-34
2020/12/04 08:12:34;;;;;;;2.70;1.15;;;22.10;43.50;;;;;;580551;95;3003622;-34
2020/12/04 08:15:02;;;;;;;;;;;22.10;43.60;;;;;;585657;93;3002498;-34
2020/12/04 08:17:32;;;;;;;1.52;1.22;;;22.10;43.70;;;;;;575662;95;3001661;-33
2020/12/04 08:20:00;;;;;;;1.37;1.15;;;22.20;43.50;;;;;;584109;94;3001984;-34
2020/12/04 08:22:32;;;;;;;1.77;0.98;;;22.20;43.50;;;;;;589480;94;3001597;-33
2020/12/04 08:25:06;;;;;;;1.15;1.05;;;22.20;43.50;;;;;;585868;94;3001650;-34
2020/12/04 08:27:34;;;;;;;1.00;0.85;;;22.20;43.40;;;;;;584676;94;3003930;-33
2020/12/04 08:30:17;;;;;;;1.17;0.95;;;22.20;42.90;;;;;;582417;95;3002022;-34
2020/12/04 08:32:58;;;;;;;1.20;1.07;;;22.20;43.80;;;;;;589295;94;3002209;-33
2020/12/04 08:35:38;;;;;;;1.07;0.95;;;22.20;43.50;;;;;;579683;95;3002027;-33
2020/12/04 08:38:11;;;;;;;1.40;1.10;;;22.20;43.70;;;;;;585750;92;3001635;-34
2020/12/04 08:40:40;;;;;;;;;;;22.30;43.60;;;;;;593522;90;3001865;-33
2020/12/04 08:43:19;;;;;;;1.37;1.15;;;22.30;43.70;;;;;;596285;92;3003480;-34
2020/12/04 08:45:48;;;;;;;2.27;1.10;;;22.30;43.70;;;;;;582024;92;3002327;-34
2020/12/04 08:48:21;;;;;;;1.52;0.85;;;22.30;43.60;;;;;;585353;94;3001630;-35
2020/12/04 08:50:54;;;;;;;1.15;1.00;;;22.30;43.60;;;;;;594139;92;3001899;-36
2020/12/04 08:53:24;;;;;;;1.25;1.00;;;22.30;43.50;;;;;;581911;96;3002302;-35
2020/12/04 08:55:53;;;;;;;2.05;1.22;;;22.20;43.40;;;;;;585993;94;3001685;-35
2020/12/04 08:58:23;;;;;;;2.05;0.98;;;22.20;43.90;;;;;;600183;91;3001622;-35
2020/12/04 09:00:53;;;;;;;2.47;1.20;;;22.20;43.70;;;;;;584712;94;3001646;-35
2020/12/04 09:03:22;;;;;;;3.83;1.20;;;22.20;43.70;;;;;;602068;93;3001872;-33
2020/12/04 09:05:50;;;;;;;1.80;1.35;;;;;;;;;;596274;92;3001902;-34
2020/12/04 09:08:18;;;;;;;2.00;1.65;;;22.20;44.00;;;;;;591790;91;3001916;-32
2020/12/04 09:10:45;;;;;;;2.80;1.20;;;22.20;44.10;;;;;;583352;94;3002023;-36
2020/12/04 09:13:13;;;;;;;1.02;0.90;;;22.30;44.20;;;;;;587863;92;3003233;-33
2020/12/04 09:15:41;;;;;;;1.50;1.15;;;22.20;44.00;;;;;;590585;91;3002257;-32
2020/12/04 09:18:09;;;;;;;2.08;1.12;;;22.30;44.10;;;;;;592619;91;3001883;-34
2020/12/04 09:20:37;;;;;;;1.15;1.00;;;22.30;44.10;;;;;;589579;92;3003206;-32
2020/12/04 09:23:05;;;;;;;3.80;0.95;;;22.30;44.00;;;;;;593733;92;3002811;-32
2020/12/04 09:25:33;;;;;;;4.25;1.10;;;22.30;44.00;;;;;;589911;93;3001984;-33
2020/12/04 09:28:01;;;;;;;1.52;1.17;;;22.30;44.20;;;;;;596543;92;3001683;-32
2020/12/04 09:30:28;;;;;;;2.02;1.00;;;22.40;44.10;;;;;;585067;93;3001647;-33
2020/12/04 09:32:56;;;;;;;1.10;1.00;;;22.30;44.00;;;;;;588197;94;3002015;-35
2020/12/04 09:35:24;;;;;;;1.20;1.10;;;22.30;44.00;;;;;;585380;93;3003148;-41
2020/12/04 09:37:52;;;;;;;1.50;1.17;;;22.30;44.20;;;;;;585257;93;3002109;-33
2020/12/04 09:40:20;;;;;;;2.12;1.02;;;22.40;44.00;;;;;;605607;90;3002234;-34
2020/12/04 09:42:48;;;;;;;1.10;1.00;;;22.30;44.00;;;;;;597366;92;3002027;-34
2020/12/04 09:45:15;;;;;;;1.92;1.15;;;22.40;44.00;;;;;;602872;91;3001658;-33
2020/12/04 09:47:43;;;;;;;1.25;1.15;;;22.40;44.10;;;;;;588415;93;3001930;-34
2020/12/04 09:50:15;;;;;;;1.60;0.90;;;22.40;44.00;;;;;;598735;92;3001902;-34
2020/12/04 09:52:43;;;;;;;1.20;1.10;;;22.40;43.90;;;;;;601610;92;3001582;-34
2020/12/04 09:55:12;;;;;;;1.00;0.90;;;22.40;44.00;;;;;;595439;92;3001994;-33
2020/12/04 09:57:40;;;;;;;3.62;1.10;;;22.40;44.00;;;;;;596692;92;3002030;-33
2020/12/04 10:00:08;;;;;;;1.85;1.30;;;22.40;44.00;;;;;;594759;92;3002021;-34
2020/12/04 10:02:36;;;;;;;3.08;1.22;;;22.40;43.90;;;;;;602105;92;3001684;-33
2020/12/04 10:05:05;;;;;;;1.82;0.82;;;22.50;43.90;;;;;;600989;92;3001967;-34
2020/12/04 10:07:32;;;;;;;9.35;1.10;;;22.40;43.60;;;;;;601485;92;3001612;-34
2020/12/04 10:10:00;;;;;;;0.95;0.85;;;22.50;43.90;;;;;;600056;92;3001611;-34
2020/12/04 10:12:28;;;;;;;1.27;1.07;;;22.40;43.90;;;;;;596342;92;3001705;-33
2020/12/04 10:14:55;;;;;;;3.52;1.20;;;22.40;44.00;;;;;;602413;90;3001995;-35
2020/12/04 10:17:23;;;;;;;0.82;0.82;;;22.40;44.30;;;;;;603940;92;3001760;-34
2020/12/04 10:19:51;;;;;;;16.20;1.62;;;22.50;44.20;;;;;;598008;91;3002300;-34
2020/12/04 10:22:18;;;;;;;3.98;1.00;;;22.50;44.20;;;;;;594760;92;3001987;-33
2020/12/04 10:24:46;;;;;;;3.87;1.07;;;22.50;44.10;;;;;;591890;92;3002039;-33
2020/12/04 10:27:13;;;;;;;2.60;1.10;;;22.50;44.10;;;;;;596665;93;3001682;-33
2020/12/04 10:29:41;;;;;;;1.02;0.90;;;22.50;44.10;;;;;;595976;93;3002020;-34
2020/12/04 10:32:08;;;;;;;1.40;0.85;;;22.50;44.10;;;;;;594119;93;3002069;-35
2020/12/04 10:34:36;;;;;;;1.17;1.05;;;22.50;44.10;;;;;;593165;93;3002166;-34
2020/12/04 10:37:04;;;;;;;3.45;1.27;;;22.50;44.10;;;;;;597900;92;3001942;-35
2020/12/04 10:39:32;;;;;;;5.45;1.22;;;22.50;44.00;;;;;;597852;93;3001944;-33
2020/12/04 10:42:00;;;;;;;3.75;1.12;;;22.50;43.60;;;;;;596803;93;3002602;-34
2020/12/04 10:44:27;;;;;;;3.50;0.90;;;22.50;44.20;;;;;;592339;93;3002078;-33
2020/12/04 10:46:55;;;;;;;2.27;1.27;;;22.50;44.10;;;;;;598800;93;3002998;-32
2020/12/04 10:49:23;;;;;;;3.17;0.72;;;22.60;44.30;;;;;;591342;92;3002063;-33
2020/12/04 10:51:58;;;;;;;1.20;0.90;;;22.50;44.00;;;;;;599956;91;3002300;-34
2020/12/04 10:54:26;;;;;;;0.90;0.90;;;22.60;44.00;;;;;;600176;92;3003353;-34
2020/12/04 10:56:56;;;;;;;4.25;1.07;;;22.60;44.10;;;;;;592343;93;3002644;-33
2020/12/04 10:59:24;;;;;;;5.08;0.78;;;22.60;44.00;;;;;;601874;90;3002806;-35
2020/12/04 11:02:07;;;;;;;4.22;0.90;;;22.60;43.90;;;;;;594035;91;3002364;-34
2020/12/04 11:07:09;;;;;;;1.30;1.20;;;22.60;44.10;;;;;;597262;92;3002027;-33
2020/12/04 11:09:38;;;;;;;17.32;1.65;;;22.60;44.20;;;;;;595809;93;3002026;-33
2020/12/04 11:12:06;;;;;;;3.95;1.12;;;22.60;44.30;;;;;;601339;92;3003256;-33
2020/12/04 11:14:33;;;;;;;3.55;1.07;;;22.60;44.40;;;;;;598913;92;3002062;-33
2020/12/04 11:17:01;;;;;;;1.27;1.00;;;22.70;44.20;;;;;;595593;91;3002408;-35
2020/12/04 11:19:28;;;;;;;2.47;0.93;;;22.60;44.60;;;;;;598562;92;3002119;-33
2020/12/04 11:21:56;;;;;;;2.08;1.20;;;22.70;44.70;;;;;;597234;92;3002032;-35
2020/12/04 11:24:23;;;;;;;5.15;1.20;;;22.70;44.00;;;;;;598578;92;3002249;-35
2020/12/04 11:26:51;;;;;;;1.00;0.90;;;22.70;44.40;;;;;;596430;92;3002285;-33
2020/12/04 11:29:19;;;;;;;0.78;0.78;;;22.60;44.30;;;;;;600053;92;3002232;-34
2020/12/04 11:31:46;;;;;;;1.20;0.95;;;22.70;43.90;;;;;;595997;92;3002393;-34
2020/12/04 11:34:14;;;;;;;5.28;0.72;;;22.70;44.00;;;;;;595427;92;3002028;-33
2020/12/04 11:36:41;;;;;;;5.45;1.20;;;22.70;44.20;;;;;;596781;92;3001955;-33
2020/12/04 11:39:09;;;;;;;1.65;0.88;;;22.70;44.00;;;;;;593719;92;3002048;-33
2020/12/04 11:41:36;;;;;;;1.10;0.98;;;22.70;43.90;;;;;;598150;91;3001914;-34
2020/12/04 11:44:04;;;;;;;1.35;0.72;;;22.70;43.80;;;;;;597914;92;3001873;-34
2020/12/04 11:46:32;;;;;;;3.10;0.80;;;22.70;43.90;;;;;;590582;93;3002430;-34
2020/12/04 11:48:59;;;;;;;2.15;0.75;;;22.70;44.00;;;;;;589599;93;3003446;-34
2020/12/04 11:51:27;;;;;;;1.92;1.07;;;22.60;44.10;;;;;;589566;95;3002367;-34
2020/12/04 11:53:54;;;;;;;2.40;0.75;;;22.60;44.10;;;;;;575377;94;3002031;-34
2020/12/04 11:56:22;;;;;;;1.65;0.80;;;22.60;44.10;;;;;;598794;92;3002257;-33
2020/12/04 11:58:49;;;;;;;1.25;1.00;;;22.60;44.40;;;;;;603833;92;3001936;-36
2020/12/04 12:01:17;;;;;;;1.15;0.95;;;22.60;44.60;;;;;;596505;90;3002348;-34
2020/12/04 12:03:45;;;;;;;1.02;0.90;;;22.70;44.20;;;;;;599091;93;3001954;-32
2020/12/04 12:06:12;;;;;;;1.15;1.05;;;22.70;44.20;;;;;;598337;92;3003074;-33
2020/12/04 12:08:40;;;;;;;1.22;0.88;;;22.70;44.30;;;;;;597737;92;3002022;-33
2020/12/04 12:11:07;;;;;;;1.67;1.17;;;22.70;44.30;;;;;;599685;91;3002473;-33
2020/12/04 12:13:35;;;;;;;1.30;0.98;;;22.70;44.40;;;;;;599113;91;3002252;-33
2020/12/04 12:16:06;;;;;;;3.75;1.15;;;22.70;44.40;;;;;;590487;91;3002014;-33
2020/12/04 12:18:32;;;;;;;3.15;1.10;;;22.70;45.30;;;;;;585939;93;3002364;-33
2020/12/04 12:20:59;;;;;;;3.37;0.65;;;22.70;44.70;;;;;;596614;93;3002136;-33
2020/12/04 12:23:27;;;;;;;1.85;1.37;;;22.70;44.70;;;;;;595795;93;3001884;-32
2020/12/04 12:25:55;;;;;;;1.25;0.90;;;22.70;44.70;;;;;;590074;92;3002338;-32
2020/12/04 12:28:22;;;;;;;5.25;0.90;;;22.70;44.80;;;;;;592186;92;3002669;-33
2020/12/04 12:30:50;;;;;;;2.30;0.88;;;22.70;45.30;;;;;;595226;92;3002473;-33
2020/12/04 12:33:17;;;;;;;5.75;1.10;;;22.70;44.80;;;;;;596659;92;3001982;-33
2020/12/04 12:35:45;;;;;;;3.00;1.40;;;22.60;44.70;;;;;;598766;92;3003564;-32
2020/12/04 12:38:13;;;;;;;6.75;1.25;;;22.60;44.80;;;;;;591820;92;3002231;-32
2020/12/04 12:40:40;;;;;;;3.98;1.60;;;22.60;44.90;;;;;;595850;93;3003634;-33
2020/12/04 12:43:08;;;;;;;5.28;1.55;;;22.60;44.90;;;;;;596434;92;3002005;-35
2020/12/04 12:45:36;;;;;;;4.78;1.82;;;22.70;44.90;;;;;;590886;92;3002330;-34
2020/12/04 12:48:03;;;;;;;4.75;1.52;;;22.70;44.90;;;;;;587955;93;3002395;-32
2020/12/04 12:50:31;;;;;;;5.28;1.37;;;22.70;44.80;;;;;;587592;93;3001934;-34